Time;durP1;ratioP1;P1;durP2;ratioP2;P2;SDS_P1;SDS_P2;PMS_P1;PMS_P2;Temp;Humidity;BMP_temperature;BMP_pressure;BME280_temperature;BME280_humidity;BME280_pressure;Samples;Min_cycle;Max_cycle;Signal;HPM_P1;HPM_P2
2024/01/10 00:00:57;;;;;;;22.00;11.50;;;-4.00;99.90;;;;;;4958685;28;20220;-50
2024/01/10 00:03:24;;;;;;;19.53;11.57;;;-4.00;99.90;;;;;;4937192;28;20221;-48
2024/01/10 00:05:51;;;;;;;22.43;11.73;;;-4.00;99.90;;;;;;4944318;28;20680;-52
2024/01/10 00:08:17;;;;;;;19.20;11.00;;;-3.90;99.90;;;;;;4960474;28;20206;-46
2024/01/10 00:10:44;;;;;;;23.13;11.07;;;-3.90;99.90;;;;;;4944977;28;21306;-45
2024/01/10 00:13:11;;;;;;;18.93;10.43;;;-3.90;99.90;;;;;;4958181;28;20220;-44
2024/01/10 00:15:39;;;;;;;24.40;11.53;;;-3.90;99.90;;;;;;4962522;28;20918;-45
2024/01/10 00:18:06;;;;;;;25.20;11.57;;;-3.90;99.90;;;;;;4939252;28;20221;-47
2024/01/10 00:20:33;;;;;;;21.93;9.90;;;-3.90;99.90;;;;;;4956322;28;20201;-47
2024/01/10 00:23:00;;;;;;;25.00;9.97;;;-3.90;99.90;;;;;;4963443;28;20202;-44
2024/01/10 00:25:27;;;;;;;19.20;10.60;;;-3.90;99.90;;;;;;4955511;28;20284;-47
2024/01/10 00:27:53;;;;;;;28.70;10.73;;;-3.90;99.90;;;;;;4943579;28;20914;-44
2024/01/10 00:30:21;;;;;;;16.93;9.67;;;-3.90;99.90;;;;;;4961212;28;20213;-47
2024/01/10 00:32:49;;;;;;;23.93;10.63;;;-3.90;99.90;;;;;;4963603;28;20224;-47
2024/01/10 00:35:16;;;;;;;19.33;9.63;;;-3.90;99.90;;;;;;4919291;28;20509;-44
2024/01/10 00:37:42;;;;;;;17.87;8.57;;;-3.90;99.90;;;;;;4961208;28;20276;-47
2024/01/10 00:40:11;;;;;;;20.03;8.00;;;-3.90;99.90;;;;;;4953464;28;20202;-49
2024/01/10 00:42:37;;;;;;;16.53;7.53;;;-3.90;99.90;;;;;;4948665;28;20206;-46
2024/01/10 00:45:05;;;;;;;23.53;8.37;;;-3.90;99.90;;;;;;4969579;28;20202;-45
2024/01/10 00:47:32;;;;;;;17.17;8.67;;;-3.90;99.90;;;;;;4964244;28;20204;-46
2024/01/10 00:50:00;;;;;;;17.50;8.73;;;-3.90;99.90;;;;;;4935733;28;20748;-44
2024/01/10 00:52:27;;;;;;;21.73;8.30;;;-3.90;99.90;;;;;;4957571;28;21069;-47
2024/01/10 00:54:54;;;;;;;32.03;8.23;;;-3.90;99.90;;;;;;4958041;28;20284;-44
2024/01/10 00:57:20;;;;;;;23.70;8.50;;;-3.90;99.90;;;;;;4951648;28;20328;-44
2024/01/10 00:59:47;;;;;;;15.80;8.47;;;-4.00;99.90;;;;;;4971501;28;20194;-48
2024/01/10 01:02:14;;;;;;;14.03;8.13;;;-3.90;99.90;;;;;;4961202;28;20946;-50
2024/01/10 01:04:41;;;;;;;18.70;9.13;;;-4.00;99.90;;;;;;4962225;28;20206;-44
2024/01/10 01:07:09;;;;;;;14.80;8.43;;;-3.90;99.90;;;;;;4924456;28;20229;-46
2024/01/10 01:09:36;;;;;;;16.57;9.23;;;-3.90;99.90;;;;;;4965183;28;20201;-45
2024/01/10 01:12:03;;;;;;;20.50;10.07;;;-3.90;99.90;;;;;;4955008;28;20209;-44
2024/01/10 01:14:30;;;;;;;17.80;9.97;;;-3.90;99.90;;;;;;4967276;28;20536;-48
2024/01/10 01:16:57;;;;;;;17.00;10.43;;;-3.90;99.90;;;;;;4960955;28;20235;-45
2024/01/10 01:19:23;;;;;;;17.53;10.33;;;-3.90;99.90;;;;;;4957368;28;20225;-47
2024/01/10 01:21:50;;;;;;;17.33;9.30;;;-3.90;99.90;;;;;;4934720;28;20212;-46
2024/01/10 01:24:18;;;;;;;27.33;10.27;;;-3.90;99.90;;;;;;4952902;28;20271;-48
2024/01/10 01:26:45;;;;;;;20.93;10.77;;;-3.80;99.90;;;;;;4963434;28;20871;-46
2024/01/10 01:29:12;;;;;;;18.83;11.00;;;-3.90;99.90;;;;;;4952449;28;20269;-49
2024/01/10 01:31:39;;;;;;;22.27;10.70;;;-3.80;99.90;;;;;;4963843;28;20194;-47
2024/01/10 01:34:06;;;;;;;17.87;9.47;;;-3.80;99.90;;;;;;4953948;28;20205;-45
2024/01/10 01:36:32;;;;;;;21.77;11.13;;;-3.80;99.90;;;;;;4929355;28;20277;-49
2024/01/10 01:38:59;;;;;;;19.27;9.83;;;-3.70;99.90;;;;;;4956826;28;20710;-46
2024/01/10 01:41:27;;;;;;;21.17;11.17;;;-3.80;99.90;;;;;;4963004;28;20201;-48
2024/01/10 01:43:54;;;;;;;25.33;10.60;;;-3.80;99.90;;;;;;4957534;28;20230;-45
2024/01/10 01:46:22;;;;;;;25.80;11.53;;;-3.70;99.90;;;;;;4964596;28;20419;-50
2024/01/10 01:48:48;;;;;;;25.57;12.50;;;-3.70;99.90;;;;;;4957632;28;20709;-45
2024/01/10 01:51:16;;;;;;;25.10;11.20;;;-3.70;99.90;;;;;;4929230;28;20409;-49
2024/01/10 01:53:45;;;;;;;25.63;11.70;;;-3.70;99.90;;;;;;4963841;28;20264;-49
2024/01/10 01:56:14;;;;;;;18.07;10.13;;;-3.70;99.90;;;;;;4957430;28;20390;-49
2024/01/10 01:58:44;;;;;;;20.80;10.47;;;-3.70;99.90;;;;;;4953670;28;20224;-46
2024/01/10 02:01:12;;;;;;;20.70;10.73;;;-3.70;99.90;;;;;;4959974;28;20260;-47
2024/01/10 02:03:39;;;;;;;19.40;10.60;;;-3.70;99.90;;;;;;4956448;28;20202;-47
2024/01/10 02:06:07;;;;;;;21.30;11.20;;;-3.60;99.90;;;;;;4962216;28;20226;-47
2024/01/10 02:08:35;;;;;;;20.80;11.20;;;-3.60;99.90;;;;;;4933691;28;20249;-47
2024/01/10 02:11:02;;;;;;;22.83;11.17;;;-3.60;99.90;;;;;;4952584;28;20985;-49
2024/01/10 02:13:29;;;;;;;23.53;11.53;;;-3.60;99.90;;;;;;4963057;28;20186;-47
2024/01/10 02:15:58;;;;;;;24.33;10.80;;;-3.60;99.90;;;;;;4953662;28;20637;-47
2024/01/10 02:18:25;;;;;;;21.07;10.90;;;-3.50;99.90;;;;;;4957614;28;20272;-46
2024/01/10 02:20:52;;;;;;;23.70;11.83;;;-3.50;99.90;;;;;;4965863;28;20197;-47
2024/01/10 02:23:19;;;;;;;22.63;11.43;;;-3.50;99.90;;;;;;4929604;28;20220;-45
2024/01/10 02:25:47;;;;;;;18.63;10.60;;;-3.50;99.90;;;;;;4966381;28;20573;-47
2024/01/10 02:28:14;;;;;;;18.57;10.27;;;-3.50;99.90;;;;;;4960191;28;20903;-48
2024/01/10 02:30:41;;;;;;;20.67;10.97;;;-3.50;99.90;;;;;;4957106;28;20217;-47
2024/01/10 02:33:08;;;;;;;19.50;10.97;;;-3.40;99.90;;;;;;4964433;28;20209;-46
2024/01/10 02:35:35;;;;;;;22.37;11.57;;;-3.40;99.90;;;;;;4967822;28;20269;-49
2024/01/10 02:38:03;;;;;;;19.53;10.97;;;-3.40;99.90;;;;;;4956748;28;20244;-47
2024/01/10 02:40:30;;;;;;;24.73;11.10;;;-3.40;99.90;;;;;;4948662;28;20220;-45
2024/01/10 02:42:58;;;;;;;20.23;10.73;;;-3.40;99.90;;;;;;4949150;28;20222;-48
2024/01/10 02:45:25;;;;;;;18.27;10.90;;;-3.40;99.90;;;;;;4950824;28;20969;-48
2024/01/10 02:47:52;;;;;;;19.93;10.87;;;-3.40;99.90;;;;;;4964406;28;20190;-53
2024/01/10 02:50:19;;;;;;;20.63;10.57;;;-3.40;99.90;;;;;;4966695;28;20558;-45
2024/01/10 02:52:46;;;;;;;22.27;10.87;;;-3.40;99.90;;;;;;4964874;28;20559;-53
2024/01/10 02:55:12;;;;;;;19.03;9.90;;;-3.40;99.90;;;;;;4934287;28;20229;-47
2024/01/10 02:57:39;;;;;;;18.83;10.30;;;-3.40;99.90;;;;;;4951210;28;20213;-49
2024/01/10 03:00:09;;;;;;;16.60;9.90;;;-3.40;99.90;;;;;;4947590;28;20332;-47
2024/01/10 03:02:36;;;;;;;19.87;9.27;;;-3.40;99.90;;;;;;4969322;28;20206;-51
2024/01/10 03:05:03;;;;;;;19.43;11.40;;;-3.30;99.90;;;;;;4960790;28;20944;-48
2024/01/10 03:07:30;;;;;;;22.00;11.10;;;-3.30;99.90;;;;;;4965106;28;20288;-46
2024/01/10 03:09:56;;;;;;;20.27;11.07;;;-3.30;99.90;;;;;;4959266;28;20313;-47
2024/01/10 03:12:23;;;;;;;19.27;10.70;;;-3.20;99.90;;;;;;4922495;28;20225;-50
2024/01/10 03:14:50;;;;;;;20.23;10.73;;;-3.20;99.90;;;;;;4956822;28;20194;-46
2024/01/10 03:17:18;;;;;;;22.13;11.23;;;-3.20;99.90;;;;;;4963281;28;20562;-46
2024/01/10 03:19:45;;;;;;;16.83;9.30;;;-3.20;99.90;;;;;;4964819;28;20224;-47
2024/01/10 03:22:12;;;;;;;18.47;9.67;;;-3.20;99.90;;;;;;4964355;28;20210;-47
2024/01/10 03:24:39;;;;;;;17.80;9.43;;;-3.10;99.90;;;;;;4959411;28;20205;-47
2024/01/10 03:27:06;;;;;;;16.87;9.57;;;-3.10;99.90;;;;;;4927560;28;21328;-48
2024/01/10 03:29:35;;;;;;;16.50;9.50;;;-3.10;99.90;;;;;;4974002;28;20222;-47
2024/01/10 03:32:01;;;;;;;17.77;9.57;;;-3.10;99.90;;;;;;4953740;28;20242;-47
2024/01/10 03:34:30;;;;;;;21.57;10.00;;;-3.10;99.90;;;;;;4970997;28;20198;-47
2024/01/10 03:36:56;;;;;;;16.07;8.93;;;-3.10;99.90;;;;;;4961223;28;20285;-50
2024/01/10 03:39:23;;;;;;;15.10;7.60;;;-3.10;99.90;;;;;;4958857;28;20229;-47
2024/01/10 03:41:50;;;;;;;13.57;8.53;;;-3.00;99.90;;;;;;4961519;28;20194;-45
2024/01/10 03:44:17;;;;;;;17.13;8.20;;;-3.00;99.90;;;;;;4935634;28;20756;-46
2024/01/10 03:46:44;;;;;;;17.53;8.40;;;-3.00;99.90;;;;;;4961140;28;20269;-45
2024/01/10 03:49:11;;;;;;;16.77;8.63;;;-3.00;99.90;;;;;;4957833;28;20207;-46
2024/01/10 03:51:40;;;;;;;16.83;8.90;;;-3.00;99.90;;;;;;4959809;28;20198;-46
2024/01/10 03:54:07;;;;;;;14.03;8.27;;;-3.00;99.90;;;;;;4955650;28;20201;-46
2024/01/10 03:56:34;;;;;;;14.87;7.93;;;-2.90;99.90;;;;;;4965701;28;20248;-44
2024/01/10 03:59:01;;;;;;;12.27;7.57;;;-3.00;99.90;;;;;;4933321;28;20244;-49
2024/01/10 04:01:28;;;;;;;14.17;7.80;;;-3.00;99.90;;;;;;4970751;28;20225;-46
2024/01/10 04:03:54;;;;;;;17.13;8.60;;;-2.90;99.90;;;;;;4952577;28;20253;-46
2024/01/10 04:06:21;;;;;;;15.47;7.97;;;-2.90;99.90;;;;;;4958542;28;20218;-47
2024/01/10 04:08:49;;;;;;;15.23;8.03;;;-3.00;99.90;;;;;;4957147;28;20193;-47
2024/01/10 04:11:16;;;;;;;18.27;9.20;;;-3.00;99.90;;;;;;4964391;28;20209;-47
2024/01/10 04:13:44;;;;;;;13.07;7.70;;;-3.00;99.90;;;;;;4953312;28;20194;-48
2024/01/10 04:16:11;;;;;;;15.83;6.67;;;-3.00;99.90;;;;;;4947073;28;20229;-48
2024/01/10 04:18:38;;;;;;;15.60;8.07;;;-3.00;99.90;;;;;;4947993;28;20238;-47
2024/01/10 04:21:05;;;;;;;16.53;7.77;;;-3.00;99.90;;;;;;4953635;28;20780;-48
2024/01/10 04:23:33;;;;;;;13.23;7.67;;;-3.00;99.90;;;;;;4963520;28;20205;-46
2024/01/10 04:26:03;;;;;;;11.70;7.33;;;-3.00;99.90;;;;;;4960667;28;20241;-51
2024/01/10 04:28:30;;;;;;;15.17;8.20;;;-3.00;99.90;;;;;;4964627;28;20201;-50
2024/01/10 04:30:57;;;;;;;13.30;7.77;;;-3.00;99.90;;;;;;4930671;28;20288;-50
2024/01/10 04:33:24;;;;;;;12.87;6.53;;;-3.00;99.90;;;;;;4950674;28;20229;-50
2024/01/10 04:35:50;;;;;;;12.60;8.07;;;-3.00;99.90;;;;;;4944264;28;20240;-49
2024/01/10 04:38:18;;;;;;;12.40;7.10;;;-3.00;99.90;;;;;;4959960;28;20214;-52
2024/01/10 04:40:45;;;;;;;16.13;8.20;;;-3.00;99.90;;;;;;4968427;28;20659;-49
2024/01/10 04:43:13;;;;;;;13.17;8.43;;;-3.00;99.90;;;;;;4959855;28;20289;-48
2024/01/10 04:45:40;;;;;;;13.57;7.53;;;-3.00;99.90;;;;;;4941785;28;20229;-48
2024/01/10 04:48:07;;;;;;;14.27;7.37;;;-2.90;99.90;;;;;;4953565;28;20194;-49
2024/01/10 04:50:35;;;;;;;14.57;6.93;;;-3.00;99.90;;;;;;4939318;28;20312;-49
2024/01/10 04:53:02;;;;;;;17.53;7.03;;;-3.00;99.90;;;;;;4971158;28;20658;-46
2024/01/10 04:55:28;;;;;;;14.00;7.23;;;-3.00;99.90;;;;;;4954724;28;20222;-46
2024/01/10 04:57:55;;;;;;;13.57;7.10;;;-3.00;99.90;;;;;;4957541;28;20202;-49
2024/01/10 05:00:23;;;;;;;15.43;7.00;;;-3.00;99.90;;;;;;4929386;28;20930;-47
2024/01/10 05:02:50;;;;;;;10.60;6.93;;;-3.00;99.90;;;;;;4954097;28;20268;-48
2024/01/10 05:05:23;;;;;;;11.90;7.17;;;-3.00;99.90;;;;;;4958819;28;20243;-48
2024/01/10 05:07:50;;;;;;;12.07;6.37;;;-3.00;99.90;;;;;;4962056;28;20197;-49
2024/01/10 05:10:17;;;;;;;12.10;7.00;;;-3.00;99.90;;;;;;4954933;28;20287;-48
2024/01/10 05:12:44;;;;;;;9.77;6.07;;;-3.00;99.90;;;;;;4954671;28;20186;-50
2024/01/10 05:15:11;;;;;;;9.97;6.07;;;-3.10;99.90;;;;;;4929890;28;20791;-50
2024/01/10 05:17:39;;;;;;;10.93;6.43;;;-3.10;99.90;;;;;;4952310;28;20197;-48
2024/01/10 05:20:07;;;;;;;10.50;5.33;;;-3.10;99.90;;;;;;4961860;28;20218;-47
2024/01/10 05:22:34;;;;;;;9.27;6.00;;;-3.00;99.90;;;;;;4950302;28;20206;-47
2024/01/10 05:25:01;;;;;;;11.63;6.00;;;-3.00;99.90;;;;;;4957461;28;20211;-44
2024/01/10 05:27:28;;;;;;;12.20;6.40;;;-3.00;99.90;;;;;;4957711;28;20209;-46
2024/01/10 05:29:55;;;;;;;8.80;5.43;;;-3.00;99.90;;;;;;4924678;28;22547;-45
2024/01/10 05:32:22;;;;;;;11.90;6.77;;;-3.00;99.90;;;;;;4958220;28;20210;-44
2024/01/10 05:34:50;;;;;;;9.80;6.73;;;-3.10;99.90;;;;;;4960121;28;20369;-45
2024/01/10 05:37:17;;;;;;;12.97;6.57;;;-3.10;99.90;;;;;;4957356;28;20225;-43
2024/01/10 05:39:44;;;;;;;9.77;6.77;;;-3.00;99.90;;;;;;4961473;28;20312;-45
2024/01/10 05:42:11;;;;;;;11.03;6.07;;;-3.00;99.90;;;;;;4954265;28;20288;-46
2024/01/10 05:44:40;;;;;;;9.93;5.23;;;-3.00;99.90;;;;;;4918908;28;20229;-43
2024/01/10 05:47:07;;;;;;;9.63;5.97;;;-3.10;99.90;;;;;;4960887;28;20226;-43
2024/01/10 05:49:33;;;;;;;9.20;5.93;;;-3.10;99.90;;;;;;4960997;28;20186;-44
2024/01/10 05:52:01;;;;;;;12.40;6.50;;;-3.10;99.90;;;;;;4963168;28;20190;-44
2024/01/10 05:54:28;;;;;;;10.90;6.00;;;-3.00;99.90;;;;;;4958850;28;20229;-45
2024/01/10 05:56:55;;;;;;;11.13;5.83;;;-3.00;99.90;;;;;;4960044;28;20538;-45
2024/01/10 05:59:22;;;;;;;13.13;7.50;;;-3.00;99.90;;;;;;4953067;28;20225;-44
2024/01/10 06:01:49;;;;;;;12.90;6.63;;;-3.00;99.90;;;;;;4935918;28;20295;-43
2024/01/10 06:04:16;;;;;;;13.37;6.47;;;-3.00;99.90;;;;;;4965636;28;20198;-46
2024/01/10 06:06:45;;;;;;;11.40;7.03;;;-3.00;99.90;;;;;;4964832;28;20210;-44
2024/01/10 06:09:13;;;;;;;13.40;7.07;;;-3.00;99.90;;;;;;4965505;28;20273;-47
2024/01/10 06:11:42;;;;;;;13.03;6.60;;;-3.00;99.90;;;;;;4955583;28;20206;-47
2024/01/10 06:14:09;;;;;;;11.97;6.73;;;-3.00;99.90;;;;;;4956825;28;20289;-43
2024/01/10 06:16:36;;;;;;;12.40;6.70;;;-2.90;99.90;;;;;;4934354;28;20276;-44
2024/01/10 06:19:03;;;;;;;11.80;6.77;;;-2.90;99.90;;;;;;4970771;28;20220;-45
2024/01/10 06:21:29;;;;;;;9.50;6.90;;;-2.90;99.90;;;;;;4955450;28;20206;-43
2024/01/10 06:23:56;;;;;;;10.80;6.43;;;-2.90;99.90;;;;;;4953188;28;20307;-43
2024/01/10 06:26:24;;;;;;;10.23;6.90;;;-2.90;99.90;;;;;;4956470;28;20245;-43
2024/01/10 06:28:51;;;;;;;12.20;7.40;;;-2.90;99.90;;;;;;4967154;28;20210;-43
2024/01/10 06:31:18;;;;;;;10.23;7.30;;;-2.90;99.90;;;;;;4952490;28;20699;-46
2024/01/10 06:33:45;;;;;;;9.47;7.00;;;-2.90;99.90;;;;;;4931815;28;20261;-44
2024/01/10 06:36:12;;;;;;;10.93;7.07;;;-2.90;99.90;;;;;;4968946;28;20213;-48
2024/01/10 06:38:39;;;;;;;10.20;7.37;;;-2.80;99.90;;;;;;4956695;28;20225;-43
2024/01/10 06:41:09;;;;;;;9.80;7.33;;;-2.80;99.90;;;;;;4955082;28;20265;-49
2024/01/10 06:43:37;;;;;;;12.90;8.00;;;-2.80;99.90;;;;;;4954739;28;20204;-44
2024/01/10 06:46:05;;;;;;;8.43;6.17;;;-2.70;99.90;;;;;;4944727;28;20242;-46
2024/01/10 06:48:32;;;;;;;12.47;7.83;;;-2.70;99.90;;;;;;4939652;28;20268;-45
2024/01/10 06:51:00;;;;;;;12.00;6.93;;;-2.70;99.90;;;;;;4963849;28;20713;-46
2024/01/10 06:53:27;;;;;;;13.80;7.77;;;-2.70;99.90;;;;;;4951047;28;20195;-45
2024/01/10 06:55:54;;;;;;;9.87;7.03;;;-2.60;99.90;;;;;;4938183;28;20278;-46
2024/01/10 06:58:21;;;;;;;12.50;8.20;;;-2.60;99.90;;;;;;4957380;28;20194;-47
2024/01/10 07:00:50;;;;;;;11.87;7.27;;;-2.60;99.90;;;;;;4952223;28;20249;-46
2024/01/10 07:03:17;;;;;;;13.87;7.70;;;-2.60;99.90;;;;;;4928964;28;20217;-47
2024/01/10 07:05:45;;;;;;;10.70;7.27;;;-2.60;99.90;;;;;;4956233;28;20212;-46
2024/01/10 07:08:12;;;;;;;11.40;7.77;;;-2.50;99.90;;;;;;4956961;28;22297;-46
2024/01/10 07:10:39;;;;;;;12.10;7.40;;;-2.50;99.90;;;;;;4953112;28;20222;-47
2024/01/10 07:13:06;;;;;;;10.70;7.37;;;-2.50;99.90;;;;;;4961008;28;20206;-43
2024/01/10 07:15:33;;;;;;;12.47;7.63;;;-2.50;99.90;;;;;;4965303;28;20260;-46
2024/01/10 07:18:02;;;;;;;9.47;6.87;;;-2.50;99.90;;;;;;4960133;28;20223;-45
2024/01/10 07:20:29;;;;;;;9.47;6.53;;;-2.50;99.90;;;;;;4928450;28;20684;-47
2024/01/10 07:22:55;;;;;;;12.27;7.43;;;-2.40;99.90;;;;;;4963185;28;20285;-46
2024/01/10 07:25:25;;;;;;;9.53;6.67;;;-2.50;99.90;;;;;;4965408;28;20226;-44
2024/01/10 07:27:52;;;;;;;11.47;6.63;;;-2.40;99.90;;;;;;4948477;28;20216;-46
2024/01/10 07:30:19;;;;;;;8.47;6.10;;;-2.40;99.90;;;;;;4956289;28;20197;-46
2024/01/10 07:32:46;;;;;;;11.60;7.57;;;-2.40;99.90;;;;;;4948248;28;20214;-46
2024/01/10 07:35:15;;;;;;;9.30;5.90;;;-2.40;99.90;;;;;;4930260;28;20222;-47
2024/01/10 07:37:42;;;;;;;11.23;6.40;;;-2.40;99.90;;;;;;4963438;28;20931;-48
2024/01/10 07:40:10;;;;;;;7.57;6.10;;;-2.40;99.90;;;;;;4964340;28;20246;-43
2024/01/10 07:42:39;;;;;;;7.83;6.40;;;-2.40;99.90;;;;;;4951280;28;20313;-47
2024/01/10 07:45:08;;;;;;;7.77;5.73;;;-2.40;99.90;;;;;;4963403;28;20284;-47
2024/01/10 07:47:37;;;;;;;9.07;5.77;;;-2.40;99.90;;;;;;4948119;28;20198;-48
2024/01/10 07:50:05;;;;;;;9.60;6.43;;;-2.40;99.90;;;;;;4923492;28;20206;-54
2024/01/10 07:52:34;;;;;;;8.97;6.57;;;-2.30;99.90;;;;;;4968394;28;20601;-46
2024/01/10 07:55:01;;;;;;;9.67;5.93;;;-2.30;99.90;;;;;;4965432;28;20194;-43
2024/01/10 07:57:28;;;;;;;6.43;5.03;;;-2.30;99.90;;;;;;4949680;28;20301;-48
2024/01/10 07:59:55;;;;;;;10.17;5.80;;;-2.40;99.90;;;;;;4953720;28;20244;-46
2024/01/10 08:02:22;;;;;;;7.80;5.77;;;-2.40;99.90;;;;;;4950061;28;20202;-47
2024/01/10 08:04:49;;;;;;;9.17;5.93;;;-2.30;99.90;;;;;;4921159;28;20206;-49
2024/01/10 08:07:16;;;;;;;9.70;6.33;;;-2.30;99.90;;;;;;4959570;28;20252;-44
2024/01/10 08:09:44;;;;;;;9.30;6.03;;;-2.30;99.90;;;;;;4966538;28;20198;-46
2024/01/10 08:12:13;;;;;;;11.83;6.97;;;-2.20;99.90;;;;;;4961251;28;20190;-46
2024/01/10 08:14:41;;;;;;;8.53;6.17;;;-2.20;99.90;;;;;;4940916;28;20273;-46
2024/01/10 08:17:08;;;;;;;7.70;5.70;;;-2.20;99.90;;;;;;4949012;28;20258;-46
2024/01/10 08:19:35;;;;;;;8.07;5.90;;;-2.20;99.90;;;;;;4944340;28;20201;-47
2024/01/10 08:22:03;;;;;;;10.20;6.63;;;-2.20;99.90;;;;;;4937116;28;20204;-45
2024/01/10 08:24:30;;;;;;;10.17;5.50;;;-2.20;99.90;;;;;;4959081;28;20467;-44
2024/01/10 08:26:58;;;;;;;8.27;5.80;;;-2.20;99.90;;;;;;4963717;28;20245;-45
2024/01/10 08:29:30;;;;;;;9.57;5.97;;;-2.10;99.90;;;;;;4945095;28;20202;-45
2024/01/10 08:31:57;;;;;;;8.30;5.90;;;-2.10;99.90;;;;;;4949429;28;20218;-45
2024/01/10 08:34:24;;;;;;;8.23;6.27;;;-2.10;99.90;;;;;;4941252;28;20271;-46
2024/01/10 08:36:51;;;;;;;8.67;5.77;;;-2.10;99.90;;;;;;4935212;28;20278;-45
2024/01/10 08:39:17;;;;;;;10.33;6.20;;;-2.10;99.90;;;;;;4965964;28;20290;-45
2024/01/10 08:41:45;;;;;;;8.40;5.80;;;-2.10;99.90;;;;;;4964146;28;20529;-45
2024/01/10 08:44:14;;;;;;;9.27;6.27;;;-2.00;99.90;;;;;;4954984;28;20222;-46
2024/01/10 08:46:41;;;;;;;7.37;5.73;;;-2.00;99.90;;;;;;4948498;28;20884;-46
2024/01/10 08:49:08;;;;;;;11.43;6.40;;;-2.00;99.90;;;;;;4954878;28;20225;-45
2024/01/10 08:51:34;;;;;;;8.20;6.07;;;-2.00;99.90;;;;;;4922123;28;21002;-44
2024/01/10 08:54:01;;;;;;;7.43;6.30;;;-2.00;99.90;;;;;;4963019;28;20253;-44
2024/01/10 08:56:28;;;;;;;7.67;5.40;;;-1.90;99.90;;;;;;4955212;28;20217;-46
2024/01/10 08:58:56;;;;;;;7.93;5.97;;;-1.90;99.90;;;;;;4956789;28;20206;-48
2024/01/10 09:01:24;;;;;;;8.93;6.20;;;-1.90;99.90;;;;;;4943193;28;20232;-47
2024/01/10 09:03:51;;;;;;;7.93;5.20;;;-2.00;99.90;;;;;;4961789;28;20282;-46
2024/01/10 09:06:18;;;;;;;9.37;5.60;;;-2.00;99.90;;;;;;4957591;28;20222;-46
2024/01/10 09:08:45;;;;;;;8.57;6.43;;;-2.00;99.90;;;;;;4937486;28;20273;-45
2024/01/10 09:11:12;;;;;;;7.97;5.80;;;-2.00;99.90;;;;;;4956878;28;20194;-45
2024/01/10 09:13:40;;;;;;;9.63;5.90;;;-2.00;99.90;;;;;;4962799;28;20192;-46
2024/01/10 09:16:07;;;;;;;6.53;5.47;;;-2.00;99.90;;;;;;4961239;28;20650;-44
2024/01/10 09:18:35;;;;;;;9.07;5.80;;;-2.00;99.90;;;;;;4953940;28;20198;-45
2024/01/10 09:21:02;;;;;;;7.27;5.97;;;-2.00;99.90;;;;;;4962640;28;20219;-47
2024/01/10 09:23:30;;;;;;;7.43;5.50;;;-1.90;99.90;;;;;;4929575;28;21043;-46
2024/01/10 09:25:57;;;;;;;9.00;5.57;;;-1.90;99.90;;;;;;4955991;28;20298;-45
2024/01/10 09:28:24;;;;;;;8.40;5.80;;;-1.90;99.90;;;;;;4962408;28;20190;-48
2024/01/10 09:30:51;;;;;;;7.40;5.27;;;-1.90;99.90;;;;;;4963205;28;20192;-45
2024/01/10 09:33:18;;;;;;;8.67;5.43;;;-1.90;99.90;;;;;;4944916;28;20214;-48
2024/01/10 09:35:46;;;;;;;7.37;4.97;;;-1.90;99.90;;;;;;4961425;28;20237;-45
2024/01/10 09:38:13;;;;;;;6.73;5.23;;;-1.90;99.90;;;;;;4923043;28;20218;-45
2024/01/10 09:40:40;;;;;;;7.60;5.73;;;-1.80;99.90;;;;;;4956229;28;20922;-45
2024/01/10 09:43:07;;;;;;;7.87;5.83;;;-1.80;99.90;;;;;;4962909;28;20202;-45
2024/01/10 09:45:36;;;;;;;8.10;5.40;;;-1.80;99.90;;;;;;4960527;28;20214;-49
2024/01/10 09:48:05;;;;;;;10.13;6.27;;;-1.90;99.90;;;;;;4962699;28;20203;-49
2024/01/10 09:50:32;;;;;;;10.47;6.53;;;-1.90;99.90;;;;;;4960860;28;20198;-47
2024/01/10 09:53:07;;;;;;;7.00;5.40;;;-1.80;99.90;;;;;;4953047;28;20296;-49
2024/01/10 09:55:37;;;;;;;8.63;5.80;;;-1.80;99.90;;;;;;4934671;28;20319;-45
2024/01/10 09:58:05;;;;;;;9.30;6.23;;;-1.80;99.90;;;;;;4962560;28;20549;-46
2024/01/10 10:00:35;;;;;;;9.47;6.40;;;-1.80;99.90;;;;;;4958088;28;20214;-45
2024/01/10 10:03:04;;;;;;;9.70;6.63;;;-1.80;99.90;;;;;;4960607;28;21001;-47
2024/01/10 10:05:34;;;;;;;8.90;5.60;;;-1.80;99.90;;;;;;4954992;28;20247;-45
2024/01/10 10:08:02;;;;;;;8.90;6.17;;;-1.90;99.90;;;;;;4953414;28;20188;-48
2024/01/10 10:10:29;;;;;;;10.20;6.63;;;-1.90;99.90;;;;;;4935799;28;20239;-48
2024/01/10 10:12:56;;;;;;;8.70;6.17;;;-2.00;99.90;;;;;;4953623;28;20215;-46
2024/01/10 10:15:26;;;;;;;6.97;5.10;;;-2.00;99.90;;;;;;4968851;28;20218;-50
2024/01/10 10:17:53;;;;;;;10.60;6.67;;;-2.00;99.90;;;;;;4961280;28;20190;-45
2024/01/10 10:20:22;;;;;;;10.43;6.70;;;-2.00;99.90;;;;;;4954284;28;20227;-46
2024/01/10 10:23:04;;;;;;;12.17;7.23;;;-2.00;99.90;;;;;;4954384;28;20183;-45
2024/01/10 10:25:32;;;;;;;11.13;7.13;;;-2.00;99.90;;;;;;4932443;28;20222;-46
2024/01/10 10:27:59;;;;;;;11.13;7.93;;;-2.00;99.90;;;;;;4960578;28;20912;-44
2024/01/10 10:30:26;;;;;;;10.63;6.40;;;-2.10;99.90;;;;;;4970836;28;20670;-44
2024/01/10 10:32:54;;;;;;;11.10;7.63;;;-2.00;99.90;;;;;;4962468;28;20972;-44
2024/01/10 10:35:21;;;;;;;11.00;7.20;;;-2.00;99.90;;;;;;4949825;28;20223;-45
2024/01/10 10:37:49;;;;;;;12.33;8.10;;;-2.00;99.90;;;;;;4948575;28;20212;-45
2024/01/10 10:40:18;;;;;;;12.73;7.83;;;-2.00;99.90;;;;;;4949110;28;20275;-45
2024/01/10 10:42:46;;;;;;;11.00;7.93;;;-1.90;99.90;;;;;;4962844;28;20191;-45
2024/01/10 10:45:17;;;;;;;10.83;7.87;;;-1.90;99.90;;;;;;4964606;28;20283;-46
2024/01/10 10:47:45;;;;;;;10.73;7.53;;;-1.90;99.90;;;;;;4960254;28;20212;-45
2024/01/10 10:50:15;;;;;;;9.30;6.90;;;-2.00;99.90;;;;;;4948270;28;20210;-46
2024/01/10 10:52:46;;;;;;;8.90;6.27;;;-2.00;99.90;;;;;;4956680;28;20261;-45
2024/01/10 10:55:17;;;;;;;6.77;5.17;;;-2.10;99.90;;;;;;4961469;28;20273;-46
2024/01/10 10:57:46;;;;;;;7.83;5.47;;;-2.10;99.90;;;;;;4955421;28;20946;-45
2024/01/10 11:00:16;;;;;;;6.90;5.20;;;-2.20;99.90;;;;;;4962178;28;20284;-46
2024/01/10 11:02:43;;;;;;;5.33;3.97;;;-2.10;99.90;;;;;;4956328;28;20197;-48
2024/01/10 11:05:10;;;;;;;6.23;3.73;;;-2.20;99.90;;;;;;4954538;28;20202;-46
2024/01/10 11:07:37;;;;;;;6.07;3.90;;;-2.20;99.90;;;;;;4963692;28;20197;-49
2024/01/10 11:10:08;;;;;;;5.63;3.87;;;-2.30;99.90;;;;;;4965545;28;20207;-47
2024/01/10 11:12:55;;;;;;;4.43;3.47;;;-2.20;99.90;;;;;;4933332;28;20195;-45
2024/01/10 11:15:42;;;;;;;6.00;4.17;;;-2.20;99.90;;;;;;4959343;28;20297;-48
2024/01/10 11:18:30;;;;;;;4.93;4.37;;;-2.20;99.90;;;;;;4959900;28;20201;-48
2024/01/10 11:21:12;;;;;;;6.87;4.30;;;-2.10;99.90;;;;;;4954598;28;20622;-47
2024/01/10 11:23:44;;;;;;;6.20;4.33;;;-2.10;99.90;;;;;;4959570;28;20193;-47
2024/01/10 11:26:13;;;;;;;5.70;4.67;;;-2.10;99.90;;;;;;4961745;28;20734;-45
2024/01/10 11:28:41;;;;;;;9.33;5.80;;;-2.00;99.90;;;;;;4941648;28;20198;-46
2024/01/10 11:31:09;;;;;;;8.40;5.17;;;-2.00;99.90;;;;;;4957962;28;20221;-50
2024/01/10 11:33:39;;;;;;;6.67;5.57;;;-2.00;99.90;;;;;;4962403;28;20850;-49
2024/01/10 11:36:13;;;;;;;8.83;5.83;;;-2.00;99.90;;;;;;4955292;28;20309;-45
2024/01/10 11:38:43;;;;;;;9.67;5.73;;;-2.00;99.90;;;;;;4957235;28;20281;-45
2024/01/10 11:41:12;;;;;;;8.23;5.27;;;-2.00;99.90;;;;;;4965400;28;20219;-45
2024/01/10 11:43:40;;;;;;;8.37;5.60;;;-2.00;99.90;;;;;;4934045;28;20282;-45
2024/01/10 11:46:08;;;;;;;7.33;5.10;;;-1.90;99.90;;;;;;4960897;28;20717;-46
2024/01/10 11:48:35;;;;;;;8.13;5.30;;;-1.80;99.90;;;;;;4967832;28;20186;-45
2024/01/10 11:51:04;;;;;;;9.63;5.50;;;-1.80;99.90;;;;;;4961167;28;20264;-46
2024/01/10 11:53:45;;;;;;;8.80;5.33;;;-1.80;99.90;;;;;;4945571;28;20250;-45
2024/01/10 11:56:16;;;;;;;7.70;5.13;;;-1.80;99.90;;;;;;4959354;28;20221;-44
2024/01/10 11:59:02;;;;;;;6.30;4.57;;;-1.80;99.90;;;;;;4939928;28;20202;-46
2024/01/10 12:01:29;;;;;;;8.37;5.57;;;-1.70;99.90;;;;;;4960809;28;20702;-46
2024/01/10 12:03:57;;;;;;;7.43;5.20;;;-1.70;99.90;;;;;;4964858;28;20211;-45
2024/01/10 12:06:25;;;;;;;8.37;4.63;;;-1.70;99.90;;;;;;4968782;28;20214;-46
2024/01/10 12:08:52;;;;;;;8.07;5.17;;;-1.70;99.90;;;;;;4970724;28;20222;-45
2024/01/10 12:11:19;;;;;;;7.60;5.23;;;-1.70;99.90;;;;;;4963664;28;20201;-46
2024/01/10 12:13:46;;;;;;;7.03;5.10;;;-1.60;99.90;;;;;;4932418;28;20260;-46
2024/01/10 12:16:14;;;;;;;8.10;5.10;;;-1.60;99.90;;;;;;4964379;28;20347;-44
2024/01/10 12:18:43;;;;;;;8.87;5.23;;;-1.60;99.90;;;;;;4962518;28;20229;-46
2024/01/10 12:21:10;;;;;;;6.20;4.60;;;-1.60;99.90;;;;;;4959828;28;20231;-44
2024/01/10 12:23:38;;;;;;;7.43;5.77;;;-1.60;99.90;;;;;;4964040;28;20215;-45
2024/01/10 12:26:08;;;;;;;8.67;5.17;;;-1.60;99.90;;;;;;4953867;28;20211;-45
2024/01/10 12:28:35;;;;;;;6.10;4.87;;;-1.60;99.90;;;;;;4938247;28;20211;-45
2024/01/10 12:31:04;;;;;;;8.60;5.40;;;-1.60;99.90;;;;;;4961056;28;20221;-44
2024/01/10 12:33:33;;;;;;;8.23;5.53;;;-1.60;99.90;;;;;;4964285;28;20230;-46
2024/01/10 12:36:07;;;;;;;8.17;5.67;;;-1.60;99.90;;;;;;4953710;28;20233;-45
2024/01/10 12:38:34;;;;;;;7.90;5.47;;;-1.60;99.90;;;;;;4953785;28;20277;-44
2024/01/10 12:41:02;;;;;;;6.20;4.93;;;-1.70;99.90;;;;;;4959089;28;20230;-44